sensor_id;sensor_type;location;lat;lon;timestamp;temperature;humidity
24682;DHT22;12802;53.390;-2.328;2023-02-04T00:00:52;10.30;99.90
24682;DHT22;12802;53.390;-2.328;2023-02-04T00:03:18;10.30;99.90
24682;DHT22;12802;53.390;-2.328;2023-02-04T00:05:44;10.30;99.90
24682;DHT22;12802;53.390;-2.328;2023-02-04T00:08:09;10.30;99.90
24682;DHT22;12802;53.390;-2.328;2023-02-04T00:10:35;10.30;99.90
24682;DHT22;12802;53.390;-2.328;2023-02-04T00:13:02;10.30;99.90
24682;DHT22;12802;53.390;-2.328;2023-02-04T00:15:28;10.20;99.90
24682;DHT22;12802;53.390;-2.328;2023-02-04T00:17:54;10.20;99.90
24682;DHT22;12802;53.390;-2.328;2023-02-04T00:20:20;10.20;99.90
24682;DHT22;12802;53.390;-2.328;2023-02-04T00:22:46;10.20;99.90
24682;DHT22;12802;53.390;-2.328;2023-02-04T00:25:12;10.20;99.90
24682;DHT22;12802;53.390;-2.328;2023-02-04T00:27:38;10.20;99.90
24682;DHT22;12802;53.390;-2.328;2023-02-04T00:30:05;10.10;99.90
24682;DHT22;12802;53.390;-2.328;2023-02-04T00:32:31;10.20;99.90
24682;DHT22;12802;53.390;-2.328;2023-02-04T00:34:57;10.10;99.90
24682;DHT22;12802;53.390;-2.328;2023-02-04T00:37:24;10.10;99.90
24682;DHT22;12802;53.390;-2.328;2023-02-04T00:39:50;10.10;99.90
24682;DHT22;12802;53.390;-2.328;2023-02-04T00:42:16;10.10;99.90
24682;DHT22;12802;53.390;-2.328;2023-02-04T00:44:42;10.10;99.90
24682;DHT22;12802;53.390;-2.328;2023-02-04T00:47:07;10.10;99.90
24682;DHT22;12802;53.390;-2.328;2023-02-04T00:49:33;10.10;99.90
24682;DHT22;12802;53.390;-2.328;2023-02-04T00:51:59;10.10;99.90
24682;DHT22;12802;53.390;-2.328;2023-02-04T00:54:25;10.10;99.90
24682;DHT22;12802;53.390;-2.328;2023-02-04T00:56:51;10.10;99.90
24682;DHT22;12802;53.390;-2.328;2023-02-04T00:59:17;10.10;99.90
24682;DHT22;12802;53.390;-2.328;2023-02-04T01:01:43;10.10;99.90
24682;DHT22;12802;53.390;-2.328;2023-02-04T01:04:09;10.10;99.90
24682;DHT22;12802;53.390;-2.328;2023-02-04T01:06:35;10.10;99.90
24682;DHT22;12802;53.390;-2.328;2023-02-04T01:09:02;10.00;99.90
24682;DHT22;12802;53.390;-2.328;2023-02-04T01:11:28;10.10;99.90
24682;DHT22;12802;53.390;-2.328;2023-02-04T01:13:54;10.10;99.90
24682;DHT22;12802;53.390;-2.328;2023-02-04T01:16:20;10.10;99.90
24682;DHT22;12802;53.390;-2.328;2023-02-04T01:18:46;10.10;99.90
24682;DHT22;12802;53.390;-2.328;2023-02-04T01:21:11;10.10;99.90
24682;DHT22;12802;53.390;-2.328;2023-02-04T01:23:37;10.10;99.90
24682;DHT22;12802;53.390;-2.328;2023-02-04T01:26:03;10.10;99.90
24682;DHT22;12802;53.390;-2.328;2023-02-04T01:28:31;10.00;99.90
24682;DHT22;12802;53.390;-2.328;2023-02-04T01:30:57;10.00;99.90
24682;DHT22;12802;53.390;-2.328;2023-02-04T01:33:23;10.00;99.90
24682;DHT22;12802;53.390;-2.328;2023-02-04T01:35:49;10.00;99.90
24682;DHT22;12802;53.390;-2.328;2023-02-04T01:38:15;10.00;99.90
24682;DHT22;12802;53.390;-2.328;2023-02-04T01:40:41;10.00;99.90
24682;DHT22;12802;53.390;-2.328;2023-02-04T01:43:08;10.00;99.90
24682;DHT22;12802;53.390;-2.328;2023-02-04T01:45:34;10.00;99.90
24682;DHT22;12802;53.390;-2.328;2023-02-04T01:48:02;9.90;99.90
24682;DHT22;12802;53.390;-2.328;2023-02-04T01:50:28;9.90;99.90
24682;DHT22;12802;53.390;-2.328;2023-02-04T01:52:54;9.90;99.90
24682;DHT22;12802;53.390;-2.328;2023-02-04T01:55:24;9.90;99.90
24682;DHT22;12802;53.390;-2.328;2023-02-04T01:57:50;10.00;99.90
24682;DHT22;12802;53.390;-2.328;2023-02-04T02:00:25;10.00;99.90
24682;DHT22;12802;53.390;-2.328;2023-02-04T02:02:52;10.00;99.90
24682;DHT22;12802;53.390;-2.328;2023-02-04T02:05:29;9.90;99.90
24682;DHT22;12802;53.390;-2.328;2023-02-04T02:07:58;9.90;99.90
24682;DHT22;12802;53.390;-2.328;2023-02-04T02:10:25;9.90;99.90
24682;DHT22;12802;53.390;-2.328;2023-02-04T02:12:52;9.90;99.90
24682;DHT22;12802;53.390;-2.328;2023-02-04T02:15:19;9.90;99.90
24682;DHT22;12802;53.390;-2.328;2023-02-04T02:17:46;9.90;99.90
24682;DHT22;12802;53.390;-2.328;2023-02-04T02:20:14;9.90;99.90
24682;DHT22;12802;53.390;-2.328;2023-02-04T02:22:54;9.90;99.90
24682;DHT22;12802;53.390;-2.328;2023-02-04T02:25:22;9.90;99.90
24682;DHT22;12802;53.390;-2.328;2023-02-04T02:27:48;9.90;99.90
24682;DHT22;12802;53.390;-2.328;2023-02-04T02:30:14;9.90;99.90
24682;DHT22;12802;53.390;-2.328;2023-02-04T02:32:43;9.90;99.90
24682;DHT22;12802;53.390;-2.328;2023-02-04T02:35:10;9.90;99.90
24682;DHT22;12802;53.390;-2.328;2023-02-04T02:37:36;9.90;99.90
24682;DHT22;12802;53.390;-2.328;2023-02-04T02:40:02;9.80;99.90
24682;DHT22;12802;53.390;-2.328;2023-02-04T02:42:29;9.80;99.90
24682;DHT22;12802;53.390;-2.328;2023-02-04T02:44:56;9.80;99.90
24682;DHT22;12802;53.390;-2.328;2023-02-04T02:47:22;9.80;99.90
24682;DHT22;12802;53.390;-2.328;2023-02-04T02:49:50;9.80;99.90
24682;DHT22;12802;53.390;-2.328;2023-02-04T02:52:17;9.80;99.90
24682;DHT22;12802;53.390;-2.328;2023-02-04T02:54:43;9.80;99.90
24682;DHT22;12802;53.390;-2.328;2023-02-04T02:57:20;9.80;99.90
24682;DHT22;12802;53.390;-2.328;2023-02-04T02:59:46;9.80;99.90
24682;DHT22;12802;53.390;-2.328;2023-02-04T03:02:18;9.80;99.90
24682;DHT22;12802;53.390;-2.328;2023-02-04T03:04:50;9.80;99.90
24682;DHT22;12802;53.390;-2.328;2023-02-04T03:07:20;9.80;99.90
24682;DHT22;12802;53.390;-2.328;2023-02-04T03:09:47;9.80;99.90
24682;DHT22;12802;53.390;-2.328;2023-02-04T03:12:13;9.70;99.90
24682;DHT22;12802;53.390;-2.328;2023-02-04T03:14:40;9.70;99.90
24682;DHT22;12802;53.390;-2.328;2023-02-04T03:17:08;9.70;99.90
24682;DHT22;12802;53.390;-2.328;2023-02-04T03:19:34;9.70;99.90
24682;DHT22;12802;53.390;-2.328;2023-02-04T03:22:02;9.70;99.90
24682;DHT22;12802;53.390;-2.328;2023-02-04T03:24:28;9.70;99.90
24682;DHT22;12802;53.390;-2.328;2023-02-04T03:26:56;9.70;99.90
24682;DHT22;12802;53.390;-2.328;2023-02-04T03:29:21;9.70;99.90
24682;DHT22;12802;53.390;-2.328;2023-02-04T03:31:47;9.70;99.90
24682;DHT22;12802;53.390;-2.328;2023-02-04T03:34:13;9.70;99.90
24682;DHT22;12802;53.390;-2.328;2023-02-04T03:36:39;9.70;99.90
24682;DHT22;12802;53.390;-2.328;2023-02-04T03:39:04;9.70;99.90
24682;DHT22;12802;53.390;-2.328;2023-02-04T03:41:30;9.70;99.90
24682;DHT22;12802;53.390;-2.328;2023-02-04T03:43:56;9.70;99.90
24682;DHT22;12802;53.390;-2.328;2023-02-04T03:46:21;9.60;99.90
24682;DHT22;12802;53.390;-2.328;2023-02-04T03:48:48;9.70;99.90
24682;DHT22;12802;53.390;-2.328;2023-02-04T03:51:14;9.60;99.90
24682;DHT22;12802;53.390;-2.328;2023-02-04T03:53:40;9.60;99.90
24682;DHT22;12802;53.390;-2.328;2023-02-04T03:56:06;9.60;99.90
24682;DHT22;12802;53.390;-2.328;2023-02-04T03:58:32;9.70;99.90
24682;DHT22;12802;53.390;-2.328;2023-02-04T04:00:57;9.60;99.90
24682;DHT22;12802;53.390;-2.328;2023-02-04T04:03:23;9.60;99.90
24682;DHT22;12802;53.390;-2.328;2023-02-04T04:05:49;9.70;99.90
24682;DHT22;12802;53.390;-2.328;2023-02-04T04:08:14;9.70;99.90
24682;DHT22;12802;53.390;-2.328;2023-02-04T04:10:40;9.70;99.90
24682;DHT22;12802;53.390;-2.328;2023-02-04T04:13:06;9.60;99.90
24682;DHT22;12802;53.390;-2.328;2023-02-04T04:15:32;9.60;99.90
24682;DHT22;12802;53.390;-2.328;2023-02-04T04:17:57;9.60;99.90
24682;DHT22;12802;53.390;-2.328;2023-02-04T04:20:23;9.60;99.90
24682;DHT22;12802;53.390;-2.328;2023-02-04T04:22:50;9.60;99.90
24682;DHT22;12802;53.390;-2.328;2023-02-04T04:25:16;9.60;99.90
24682;DHT22;12802;53.390;-2.328;2023-02-04T04:27:42;9.60;99.90
24682;DHT22;12802;53.390;-2.328;2023-02-04T04:30:09;9.60;99.90
24682;DHT22;12802;53.390;-2.328;2023-02-04T04:32:35;9.60;99.90
24682;DHT22;12802;53.390;-2.328;2023-02-04T04:35:01;9.60;99.90
24682;DHT22;12802;53.390;-2.328;2023-02-04T04:37:27;9.60;99.90
24682;DHT22;12802;53.390;-2.328;2023-02-04T04:39:52;9.60;99.90
24682;DHT22;12802;53.390;-2.328;2023-02-04T04:42:18;9.60;99.90
24682;DHT22;12802;53.390;-2.328;2023-02-04T04:44:44;9.60;99.90
24682;DHT22;12802;53.390;-2.328;2023-02-04T04:47:10;9.60;99.90
24682;DHT22;12802;53.390;-2.328;2023-02-04T04:49:36;9.50;99.90
24682;DHT22;12802;53.390;-2.328;2023-02-04T04:52:01;9.50;99.90
24682;DHT22;12802;53.390;-2.328;2023-02-04T04:54:27;9.50;99.90
24682;DHT22;12802;53.390;-2.328;2023-02-04T04:56:53;9.50;99.90
24682;DHT22;12802;53.390;-2.328;2023-02-04T04:59:19;9.50;99.90
24682;DHT22;12802;53.390;-2.328;2023-02-04T05:01:44;9.50;99.90
24682;DHT22;12802;53.390;-2.328;2023-02-04T05:04:10;9.50;99.90
24682;DHT22;12802;53.390;-2.328;2023-02-04T05:06:36;9.50;99.90
24682;DHT22;12802;53.390;-2.328;2023-02-04T05:09:02;9.50;99.90
24682;DHT22;12802;53.390;-2.328;2023-02-04T05:11:28;9.50;99.90
24682;DHT22;12802;53.390;-2.328;2023-02-04T05:13:54;9.50;99.90
24682;DHT22;12802;53.390;-2.328;2023-02-04T05:16:19;9.50;99.90
24682;DHT22;12802;53.390;-2.328;2023-02-04T05:18:45;9.50;99.90
24682;DHT22;12802;53.390;-2.328;2023-02-04T05:21:11;9.50;99.90
24682;DHT22;12802;53.390;-2.328;2023-02-04T05:23:37;9.50;99.90
24682;DHT22;12802;53.390;-2.328;2023-02-04T05:26:03;9.50;99.90
24682;DHT22;12802;53.390;-2.328;2023-02-04T05:28:28;9.50;99.90
24682;DHT22;12802;53.390;-2.328;2023-02-04T05:30:54;9.50;99.90
24682;DHT22;12802;53.390;-2.328;2023-02-04T05:33:20;9.50;99.90
24682;DHT22;12802;53.390;-2.328;2023-02-04T05:35:45;9.50;99.90
24682;DHT22;12802;53.390;-2.328;2023-02-04T05:38:11;9.50;99.90
24682;DHT22;12802;53.390;-2.328;2023-02-04T05:40:37;9.50;99.90
24682;DHT22;12802;53.390;-2.328;2023-02-04T05:43:03;9.50;99.90
24682;DHT22;12802;53.390;-2.328;2023-02-04T05:45:29;9.50;99.90
24682;DHT22;12802;53.390;-2.328;2023-02-04T05:47:55;9.50;99.90
24682;DHT22;12802;53.390;-2.328;2023-02-04T05:50:21;9.50;99.90
24682;DHT22;12802;53.390;-2.328;2023-02-04T05:52:47;9.50;99.90
24682;DHT22;12802;53.390;-2.328;2023-02-04T05:55:12;9.50;99.90
24682;DHT22;12802;53.390;-2.328;2023-02-04T05:57:38;9.50;99.90
24682;DHT22;12802;53.390;-2.328;2023-02-04T06:00:05;9.50;99.90
24682;DHT22;12802;53.390;-2.328;2023-02-04T06:02:37;9.40;99.90
24682;DHT22;12802;53.390;-2.328;2023-02-04T06:05:03;9.40;99.90
24682;DHT22;12802;53.390;-2.328;2023-02-04T06:07:29;9.40;99.90
24682;DHT22;12802;53.390;-2.328;2023-02-04T06:09:55;9.40;99.90
24682;DHT22;12802;53.390;-2.328;2023-02-04T06:12:20;9.40;99.90
24682;DHT22;12802;53.390;-2.328;2023-02-04T06:14:46;9.40;99.90
24682;DHT22;12802;53.390;-2.328;2023-02-04T06:17:12;9.40;99.90
24682;DHT22;12802;53.390;-2.328;2023-02-04T06:19:37;9.30;99.90
24682;DHT22;12802;53.390;-2.328;2023-02-04T06:22:03;9.30;99.90
24682;DHT22;12802;53.390;-2.328;2023-02-04T06:24:29;9.40;99.90
24682;DHT22;12802;53.390;-2.328;2023-02-04T06:26:55;9.40;99.90
24682;DHT22;12802;53.390;-2.328;2023-02-04T06:29:20;9.30;99.90
24682;DHT22;12802;53.390;-2.328;2023-02-04T06:31:46;9.30;99.90
24682;DHT22;12802;53.390;-2.328;2023-02-04T06:34:14;9.30;99.90
24682;DHT22;12802;53.390;-2.328;2023-02-04T06:36:40;9.30;99.90
24682;DHT22;12802;53.390;-2.328;2023-02-04T06:39:06;9.30;99.90
24682;DHT22;12802;53.390;-2.328;2023-02-04T06:41:31;9.30;99.90
24682;DHT22;12802;53.390;-2.328;2023-02-04T06:43:57;9.30;99.90
24682;DHT22;12802;53.390;-2.328;2023-02-04T06:46:23;9.30;99.90
24682;DHT22;12802;53.390;-2.328;2023-02-04T06:48:49;9.30;99.90
24682;DHT22;12802;53.390;-2.328;2023-02-04T06:51:14;9.30;99.90
24682;DHT22;12802;53.390;-2.328;2023-02-04T06:53:40;9.30;99.90
24682;DHT22;12802;53.390;-2.328;2023-02-04T06:56:09;9.30;99.90
24682;DHT22;12802;53.390;-2.328;2023-02-04T06:58:35;9.30;99.90
24682;DHT22;12802;53.390;-2.328;2023-02-04T07:01:01;9.30;99.90
24682;DHT22;12802;53.390;-2.328;2023-02-04T07:03:27;9.30;99.90
24682;DHT22;12802;53.390;-2.328;2023-02-04T07:05:53;9.30;99.90
24682;DHT22;12802;53.390;-2.328;2023-02-04T07:08:19;9.30;99.90
24682;DHT22;12802;53.390;-2.328;2023-02-04T07:10:46;9.30;99.90
24682;DHT22;12802;53.390;-2.328;2023-02-04T07:13:12;9.30;99.90
24682;DHT22;12802;53.390;-2.328;2023-02-04T07:15:38;9.30;99.90
24682;DHT22;12802;53.390;-2.328;2023-02-04T07:18:03;9.30;99.90
24682;DHT22;12802;53.390;-2.328;2023-02-04T07:20:29;9.30;99.90
24682;DHT22;12802;53.390;-2.328;2023-02-04T07:22:55;9.30;99.90
24682;DHT22;12802;53.390;-2.328;2023-02-04T07:25:20;9.30;99.90
24682;DHT22;12802;53.390;-2.328;2023-02-04T07:27:46;9.30;99.90
24682;DHT22;12802;53.390;-2.328;2023-02-04T07:30:12;9.30;99.90
24682;DHT22;12802;53.390;-2.328;2023-02-04T07:32:38;9.30;99.90
24682;DHT22;12802;53.390;-2.328;2023-02-04T07:35:04;9.30;99.90
24682;DHT22;12802;53.390;-2.328;2023-02-04T07:37:30;9.30;99.90
24682;DHT22;12802;53.390;-2.328;2023-02-04T07:39:56;9.40;99.90
24682;DHT22;12802;53.390;-2.328;2023-02-04T07:42:21;9.40;99.90
24682;DHT22;12802;53.390;-2.328;2023-02-04T07:44:53;9.40;99.90
24682;DHT22;12802;53.390;-2.328;2023-02-04T07:47:19;9.40;99.90
24682;DHT22;12802;53.390;-2.328;2023-02-04T07:49:44;9.40;99.90
24682;DHT22;12802;53.390;-2.328;2023-02-04T07:52:10;9.40;99.90
24682;DHT22;12802;53.390;-2.328;2023-02-04T07:54:36;9.40;99.90
24682;DHT22;12802;53.390;-2.328;2023-02-04T07:57:02;9.40;99.90
24682;DHT22;12802;53.390;-2.328;2023-02-04T07:59:28;9.40;99.90
24682;DHT22;12802;53.390;-2.328;2023-02-04T08:01:53;9.40;99.90
24682;DHT22;12802;53.390;-2.328;2023-02-04T08:04:19;9.50;99.90
24682;DHT22;12802;53.390;-2.328;2023-02-04T08:06:45;9.50;99.90
24682;DHT22;12802;53.390;-2.328;2023-02-04T08:09:11;9.50;99.90
24682;DHT22;12802;53.390;-2.328;2023-02-04T08:11:36;9.50;99.90
24682;DHT22;12802;53.390;-2.328;2023-02-04T08:14:02;9.50;99.90
24682;DHT22;12802;53.390;-2.328;2023-02-04T08:16:28;9.50;99.90
24682;DHT22;12802;53.390;-2.328;2023-02-04T08:18:53;9.50;99.90
24682;DHT22;12802;53.390;-2.328;2023-02-04T08:21:19;9.60;99.90
24682;DHT22;12802;53.390;-2.328;2023-02-04T08:23:45;9.60;99.90
24682;DHT22;12802;53.390;-2.328;2023-02-04T08:26:11;9.60;99.90
24682;DHT22;12802;53.390;-2.328;2023-02-04T08:28:37;9.60;99.90
24682;DHT22;12802;53.390;-2.328;2023-02-04T08:31:06;9.60;99.90
24682;DHT22;12802;53.390;-2.328;2023-02-04T08:33:37;9.60;99.90
24682;DHT22;12802;53.390;-2.328;2023-02-04T08:36:04;9.60;99.90
24682;DHT22;12802;53.390;-2.328;2023-02-04T08:38:30;9.50;99.90
24682;DHT22;12802;53.390;-2.328;2023-02-04T08:40:56;9.60;99.90
24682;DHT22;12802;53.390;-2.328;2023-02-04T08:43:21;9.60;99.90
24682;DHT22;12802;53.390;-2.328;2023-02-04T08:45:47;9.60;99.90
24682;DHT22;12802;53.390;-2.328;2023-02-04T08:48:13;9.60;99.90
24682;DHT22;12802;53.390;-2.328;2023-02-04T08:50:38;9.60;99.90
24682;DHT22;12802;53.390;-2.328;2023-02-04T08:53:04;9.60;99.90
24682;DHT22;12802;53.390;-2.328;2023-02-04T08:55:30;9.60;99.90
24682;DHT22;12802;53.390;-2.328;2023-02-04T08:57:55;9.60;99.90
24682;DHT22;12802;53.390;-2.328;2023-02-04T09:00:23;9.60;99.90
24682;DHT22;12802;53.390;-2.328;2023-02-04T09:02:49;9.60;99.90
24682;DHT22;12802;53.390;-2.328;2023-02-04T09:05:15;9.60;99.90
24682;DHT22;12802;53.390;-2.328;2023-02-04T09:07:41;9.70;99.90
24682;DHT22;12802;53.390;-2.328;2023-02-04T09:10:07;9.70;99.90
24682;DHT22;12802;53.390;-2.328;2023-02-04T09:12:33;9.70;99.90
24682;DHT22;12802;53.390;-2.328;2023-02-04T09:14:58;9.70;99.90
24682;DHT22;12802;53.390;-2.328;2023-02-04T09:17:24;9.70;99.90
24682;DHT22;12802;53.390;-2.328;2023-02-04T09:19:50;9.70;99.90
24682;DHT22;12802;53.390;-2.328;2023-02-04T09:22:16;9.70;99.90
24682;DHT22;12802;53.390;-2.328;2023-02-04T09:24:41;9.70;99.90
24682;DHT22;12802;53.390;-2.328;2023-02-04T09:27:07;9.80;99.90
24682;DHT22;12802;53.390;-2.328;2023-02-04T09:29:33;9.70;99.90
24682;DHT22;12802;53.390;-2.328;2023-02-04T09:31:59;9.80;99.90
24682;DHT22;12802;53.390;-2.328;2023-02-04T09:34:24;9.70;99.90
24682;DHT22;12802;53.390;-2.328;2023-02-04T09:36:50;9.70;99.90
24682;DHT22;12802;53.390;-2.328;2023-02-04T09:39:16;9.80;99.90
24682;DHT22;12802;53.390;-2.328;2023-02-04T09:41:42;9.70;99.90
24682;DHT22;12802;53.390;-2.328;2023-02-04T09:44:19;9.70;99.90
24682;DHT22;12802;53.390;-2.328;2023-02-04T09:46:54;9.70;99.90
24682;DHT22;12802;53.390;-2.328;2023-02-04T09:49:20;9.80;99.90
24682;DHT22;12802;53.390;-2.328;2023-02-04T09:51:47;9.80;99.90
24682;DHT22;12802;53.390;-2.328;2023-02-04T09:54:18;9.80;99.90
24682;DHT22;12802;53.390;-2.328;2023-02-04T09:56:45;9.80;99.90
24682;DHT22;12802;53.390;-2.328;2023-02-04T09:59:19;9.80;99.90
24682;DHT22;12802;53.390;-2.328;2023-02-04T10:01:53;9.80;99.90
24682;DHT22;12802;53.390;-2.328;2023-02-04T10:04:21;9.80;99.90
24682;DHT22;12802;53.390;-2.328;2023-02-04T10:06:47;9.80;99.90
24682;DHT22;12802;53.390;-2.328;2023-02-04T10:09:13;9.90;99.90
24682;DHT22;12802;53.390;-2.328;2023-02-04T10:11:41;9.90;99.90
24682;DHT22;12802;53.390;-2.328;2023-02-04T10:14:17;9.90;99.90
24682;DHT22;12802;53.390;-2.328;2023-02-04T10:16:52;9.90;99.90
24682;DHT22;12802;53.390;-2.328;2023-02-04T10:19:18;9.90;99.90
24682;DHT22;12802;53.390;-2.328;2023-02-04T10:21:45;10.00;99.90
24682;DHT22;12802;53.390;-2.328;2023-02-04T10:24:14;10.00;99.90
24682;DHT22;12802;53.390;-2.328;2023-02-04T10:26:40;10.00;99.90
24682;DHT22;12802;53.390;-2.328;2023-02-04T10:29:12;10.00;99.90
24682;DHT22;12802;53.390;-2.328;2023-02-04T10:31:43;10.00;99.90
24682;DHT22;12802;53.390;-2.328;2023-02-04T10:34:55;10.00;99.90
24682;DHT22;12802;53.390;-2.328;2023-02-04T10:37:18;10.00;99.90
24682;DHT22;12802;53.390;-2.328;2023-02-04T10:39:44;10.00;99.90
24682;DHT22;12802;53.390;-2.328;2023-02-04T10:42:25;10.00;99.90
24682;DHT22;12802;53.390;-2.328;2023-02-04T10:44:51;10.00;99.90
24682;DHT22;12802;53.390;-2.328;2023-02-04T10:47:21;10.00;99.90
24682;DHT22;12802;53.390;-2.328;2023-02-04T10:49:51;10.00;99.90
24682;DHT22;12802;53.390;-2.328;2023-02-04T10:52:19;9.90;99.90
24682;DHT22;12802;53.390;-2.328;2023-02-04T10:54:46;9.90;99.90
24682;DHT22;12802;53.390;-2.328;2023-02-04T10:57:22;9.90;99.90
24682;DHT22;12802;53.390;-2.328;2023-02-04T10:59:51;9.90;99.90
24682;DHT22;12802;53.390;-2.328;2023-02-04T11:02:43;9.90;99.90
24682;DHT22;12802;53.390;-2.328;2023-02-04T11:05:15;9.80;99.90
24682;DHT22;12802;53.390;-2.328;2023-02-04T11:07:43;9.90;99.90
24682;DHT22;12802;53.390;-2.328;2023-02-04T11:10:19;9.80;99.90
24682;DHT22;12802;53.390;-2.328;2023-02-04T11:18:12;9.80;99.90
24682;DHT22;12802;53.390;-2.328;2023-02-04T11:20:39;9.70;99.90
24682;DHT22;12802;53.390;-2.328;2023-02-04T11:26:13;9.70;99.90
24682;DHT22;12802;53.390;-2.328;2023-02-04T11:33:45;9.80;99.90
24682;DHT22;12802;53.390;-2.328;2023-02-04T11:36:12;9.70;99.90
24682;DHT22;12802;53.390;-2.328;2023-02-04T11:38:46;9.70;99.90
24682;DHT22;12802;53.390;-2.328;2023-02-04T11:41:27;9.70;99.90
24682;DHT22;12802;53.390;-2.328;2023-02-04T11:43:54;9.70;99.90
24682;DHT22;12802;53.390;-2.328;2023-02-04T11:46:22;9.70;99.90
24682;DHT22;12802;53.390;-2.328;2023-02-04T11:48:56;9.70;99.90
24682;DHT22;12802;53.390;-2.328;2023-02-04T11:51:31;9.70;99.90
24682;DHT22;12802;53.390;-2.328;2023-02-04T11:53:58;9.70;99.90
24682;DHT22;12802;53.390;-2.328;2023-02-04T11:56:27;9.70;99.90
24682;DHT22;12802;53.390;-2.328;2023-02-04T11:58:55;9.70;99.90
24682;DHT22;12802;53.390;-2.328;2023-02-04T12:01:24;9.70;99.90
24682;DHT22;12802;53.390;-2.328;2023-02-04T12:03:56;9.70;99.90
24682;DHT22;12802;53.390;-2.328;2023-02-04T12:06:25;9.70;99.90
24682;DHT22;12802;53.390;-2.328;2023-02-04T12:08:52;9.70;99.90
24682;DHT22;12802;53.390;-2.328;2023-02-04T12:11:29;9.70;99.90
24682;DHT22;12802;53.390;-2.328;2023-02-04T12:14:06;9.80;99.90
24682;DHT22;12802;53.390;-2.328;2023-02-04T12:16:50;9.70;99.90
24682;DHT22;12802;53.390;-2.328;2023-02-04T12:19:21;9.80;99.90
24682;DHT22;12802;53.390;-2.328;2023-02-04T12:21:46;9.80;99.90
24682;DHT22;12802;53.390;-2.328;2023-02-04T12:24:12;9.90;99.90
24682;DHT22;12802;53.390;-2.328;2023-02-04T12:26:38;9.90;99.90
24682;DHT22;12802;53.390;-2.328;2023-02-04T12:29:04;10.00;99.90
24682;DHT22;12802;53.390;-2.328;2023-02-04T12:31:31;10.00;99.90
24682;DHT22;12802;53.390;-2.328;2023-02-04T12:33:58;10.00;99.90
24682;DHT22;12802;53.390;-2.328;2023-02-04T12:36:24;10.00;99.90
24682;DHT22;12802;53.390;-2.328;2023-02-04T12:38:52;10.00;99.90
24682;DHT22;12802;53.390;-2.328;2023-02-04T12:41:18;10.00;99.90
24682;DHT22;12802;53.390;-2.328;2023-02-04T12:43:45;10.00;99.90
24682;DHT22;12802;53.390;-2.328;2023-02-04T12:46:11;10.00;99.90
24682;DHT22;12802;53.390;-2.328;2023-02-04T12:48:37;9.90;99.90
24682;DHT22;12802;53.390;-2.328;2023-02-04T12:51:06;9.90;99.90
24682;DHT22;12802;53.390;-2.328;2023-02-04T12:53:32;9.90;99.90
24682;DHT22;12802;53.390;-2.328;2023-02-04T12:55:57;9.90;99.90
24682;DHT22;12802;53.390;-2.328;2023-02-04T12:58:23;9.90;99.90
24682;DHT22;12802;53.390;-2.328;2023-02-04T13:00:49;10.00;99.90
24682;DHT22;12802;53.390;-2.328;2023-02-04T13:03:15;10.00;99.90
24682;DHT22;12802;53.390;-2.328;2023-02-04T13:05:41;10.00;99.90
24682;DHT22;12802;53.390;-2.328;2023-02-04T13:08:07;10.00;99.90
24682;DHT22;12802;53.390;-2.328;2023-02-04T13:10:32;10.10;99.90
24682;DHT22;12802;53.390;-2.328;2023-02-04T13:12:59;10.10;99.90
24682;DHT22;12802;53.390;-2.328;2023-02-04T13:15:26;10.10;99.90
24682;DHT22;12802;53.390;-2.328;2023-02-04T13:17:52;10.10;99.90
24682;DHT22;12802;53.390;-2.328;2023-02-04T13:20:18;10.10;99.90
24682;DHT22;12802;53.390;-2.328;2023-02-04T13:22:44;10.10;99.90
24682;DHT22;12802;53.390;-2.328;2023-02-04T13:25:10;10.00;99.90
24682;DHT22;12802;53.390;-2.328;2023-02-04T13:27:40;10.00;99.90
24682;DHT22;12802;53.390;-2.328;2023-02-04T13:30:06;10.00;99.90
24682;DHT22;12802;53.390;-2.328;2023-02-04T13:32:32;10.00;99.90
24682;DHT22;12802;53.390;-2.328;2023-02-04T13:34:58;10.00;99.90
24682;DHT22;12802;53.390;-2.328;2023-02-04T13:37:24;9.90;99.90
24682;DHT22;12802;53.390;-2.328;2023-02-04T13:39:49;9.90;99.90
24682;DHT22;12802;53.390;-2.328;2023-02-04T13:42:15;9.90;99.90
24682;DHT22;12802;53.390;-2.328;2023-02-04T13:44:41;9.90;99.90
24682;DHT22;12802;53.390;-2.328;2023-02-04T13:47:07;9.90;99.90
24682;DHT22;12802;53.390;-2.328;2023-02-04T13:49:32;9.90;99.90
24682;DHT22;12802;53.390;-2.328;2023-02-04T13:51:58;9.80;99.90
24682;DHT22;12802;53.390;-2.328;2023-02-04T13:54:24;9.90;99.90
24682;DHT22;12802;53.390;-2.328;2023-02-04T13:56:50;9.90;99.90
24682;DHT22;12802;53.390;-2.328;2023-02-04T13:59:16;10.00;99.90
24682;DHT22;12802;53.390;-2.328;2023-02-04T14:01:41;10.00;99.90
24682;DHT22;12802;53.390;-2.328;2023-02-04T14:04:07;10.10;99.90
24682;DHT22;12802;53.390;-2.328;2023-02-04T14:06:33;10.10;99.90
24682;DHT22;12802;53.390;-2.328;2023-02-04T14:09:03;10.10;99.90
24682;DHT22;12802;53.390;-2.328;2023-02-04T14:11:29;10.10;99.90
24682;DHT22;12802;53.390;-2.328;2023-02-04T14:13:55;10.20;99.90
24682;DHT22;12802;53.390;-2.328;2023-02-04T14:16:21;10.10;99.90
24682;DHT22;12802;53.390;-2.328;2023-02-04T14:18:47;10.10;99.90
24682;DHT22;12802;53.390;-2.328;2023-02-04T14:21:13;10.10;99.90
24682;DHT22;12802;53.390;-2.328;2023-02-04T14:23:38;10.10;99.90
24682;DHT22;12802;53.390;-2.328;2023-02-04T14:26:04;10.10;99.90
24682;DHT22;12802;53.390;-2.328;2023-02-04T14:28:30;10.10;99.90
24682;DHT22;12802;53.390;-2.328;2023-02-04T14:30:55;10.10;99.90
24682;DHT22;12802;53.390;-2.328;2023-02-04T14:33:21;10.00;99.90
24682;DHT22;12802;53.390;-2.328;2023-02-04T14:35:47;9.90;99.90
24682;DHT22;12802;53.390;-2.328;2023-02-04T14:38:13;9.90;99.90
24682;DHT22;12802;53.390;-2.328;2023-02-04T14:40:43;9.80;99.90
24682;DHT22;12802;53.390;-2.328;2023-02-04T14:43:09;9.70;99.90
24682;DHT22;12802;53.390;-2.328;2023-02-04T14:45:39;9.70;99.90
24682;DHT22;12802;53.390;-2.328;2023-02-04T14:48:05;9.70;99.90
24682;DHT22;12802;53.390;-2.328;2023-02-04T14:50:31;9.60;99.90
24682;DHT22;12802;53.390;-2.328;2023-02-04T14:52:57;9.60;99.90
24682;DHT22;12802;53.390;-2.328;2023-02-04T14:55:23;9.60;99.90
24682;DHT22;12802;53.390;-2.328;2023-02-04T14:57:49;9.50;99.90
24682;DHT22;12802;53.390;-2.328;2023-02-04T15:00:16;9.50;99.90
24682;DHT22;12802;53.390;-2.328;2023-02-04T15:02:42;9.50;99.90
24682;DHT22;12802;53.390;-2.328;2023-02-04T15:05:08;9.40;99.90
24682;DHT22;12802;53.390;-2.328;2023-02-04T15:07:35;9.40;99.90
24682;DHT22;12802;53.390;-2.328;2023-02-04T15:10:01;9.50;99.90
24682;DHT22;12802;53.390;-2.328;2023-02-04T15:12:27;9.50;99.90
24682;DHT22;12802;53.390;-2.328;2023-02-04T15:14:52;9.50;99.90
24682;DHT22;12802;53.390;-2.328;2023-02-04T15:17:18;9.50;99.90
24682;DHT22;12802;53.390;-2.328;2023-02-04T15:19:44;9.50;99.90
24682;DHT22;12802;53.390;-2.328;2023-02-04T15:22:10;9.50;99.90
24682;DHT22;12802;53.390;-2.328;2023-02-04T15:24:37;9.50;99.90
24682;DHT22;12802;53.390;-2.328;2023-02-04T15:27:04;9.60;99.90
24682;DHT22;12802;53.390;-2.328;2023-02-04T15:29:30;9.60;99.90
24682;DHT22;12802;53.390;-2.328;2023-02-04T15:31:56;9.60;99.90
24682;DHT22;12802;53.390;-2.328;2023-02-04T15:34:22;9.60;99.90
24682;DHT22;12802;53.390;-2.328;2023-02-04T15:36:47;9.60;99.90
24682;DHT22;12802;53.390;-2.328;2023-02-04T15:39:13;9.60;99.90